createdAt,value
2023-03-14T00:01:46.049Z,99058.94
2023-03-14T00:04:13.099Z,99057.94
2023-03-14T00:06:39.909Z,99057.19
2023-03-14T00:09:06.766Z,99049.59
2023-03-14T00:11:33.624Z,99037.94
2023-03-14T00:14:00.930Z,99033.75
2023-03-14T00:16:28.734Z,99033.75
2023-03-14T00:18:55.524Z,99016.94
2023-03-14T00:21:22.365Z,99008.69
2023-03-14T00:23:49.141Z,99002.13
2023-03-14T00:26:19.479Z,98998.00
2023-03-14T00:28:46.894Z,98988.78
2023-03-14T00:31:16.640Z,98989.78
2023-03-14T00:33:44.470Z,98992.38
2023-03-14T00:36:16.793Z,98985.84
2023-03-14T00:38:47.735Z,98983.94
2023-03-14T00:41:17.104Z,98988.19
2023-03-14T00:43:44.468Z,98982.25
2023-03-14T00:46:11.565Z,98977.19
2023-03-14T00:48:39.287Z,98976.41
2023-03-14T00:51:08.061Z,98984.84
2023-03-14T00:53:39.661Z,98979.84
2023-03-14T00:56:09.214Z,98979.16
2023-03-14T00:58:36.127Z,98971.56
2023-03-14T01:01:11.323Z,98965.81
2023-03-14T01:03:38.262Z,98953.06
2023-03-14T01:06:13.375Z,98948.09
2023-03-14T01:08:40.345Z,98954.09
2023-03-14T01:11:13.068Z,98955.88
2023-03-14T01:13:40.149Z,98956.75
2023-03-14T01:16:09.701Z,98944.19
2023-03-14T01:18:37.558Z,98956.09
2023-03-14T01:21:28.961Z,98954.69
2023-03-14T01:23:56.957Z,98939.25
2023-03-14T01:26:26.925Z,98936.03
2023-03-14T01:28:55.970Z,98926.03
2023-03-14T01:31:23.020Z,98899.06
2023-03-14T01:33:49.954Z,98885.53
2023-03-14T01:36:17.016Z,98885.47
2023-03-14T01:38:44.356Z,98884.66
2023-03-14T01:41:28.079Z,98882.25
2023-03-14T01:43:54.869Z,98883.88
2023-03-14T01:46:39.855Z,98879.00
2023-03-14T01:49:27.414Z,98875.81
2023-03-14T01:52:02.961Z,98862.44
2023-03-14T01:54:35.847Z,98845.63
2023-03-14T01:57:15.104Z,98852.44
2023-03-14T01:59:48.002Z,98845.75
2023-03-14T02:02:15.498Z,98834.88
2023-03-14T02:04:42.816Z,98821.44
2023-03-14T02:07:35.140Z,98826.00
2023-03-14T02:10:02.834Z,98827.63
2023-03-14T02:12:30.834Z,98826.75
2023-03-14T02:14:57.588Z,98817.47
2023-03-14T02:17:25.491Z,98816.69
2023-03-14T02:20:09.913Z,98815.84
2023-03-14T02:22:38.052Z,98803.16
2023-03-14T02:25:07.976Z,98805.81
2023-03-14T02:27:35.063Z,98809.06
2023-03-14T02:30:09.924Z,98797.44
2023-03-14T02:32:40.264Z,98780.47
2023-03-14T02:35:13.617Z,98776.31
2023-03-14T02:37:46.818Z,98750.91
2023-03-14T02:40:13.610Z,98733.19
2023-03-14T02:42:40.565Z,98733.19
2023-03-14T02:45:10.274Z,98729.94
2023-03-14T02:48:00.971Z,98744.44
2023-03-14T02:50:31.918Z,98736.75
2023-03-14T02:52:58.671Z,98735.97
2023-03-14T02:55:27.675Z,98735.97
2023-03-14T02:57:54.700Z,98726.72
2023-03-14T03:00:21.778Z,98721.84
2023-03-14T03:02:49.002Z,98738.03
2023-03-14T03:05:15.891Z,98727.16
2023-03-14T03:07:42.705Z,98748.59
2023-03-14T03:10:10.220Z,98744.59
2023-03-14T03:12:37.049Z,98723.56
2023-03-14T03:15:04.311Z,98738.00
2023-03-14T03:17:31.106Z,98702.56
2023-03-14T03:19:58.019Z,98705.16
2023-03-14T03:22:24.730Z,98721.44
2023-03-14T03:24:51.446Z,98699.50
2023-03-14T03:27:18.226Z,98692.78
2023-03-14T03:29:45.053Z,98704.00
2023-03-14T03:32:11.757Z,98684.56
2023-03-14T03:34:38.563Z,98673.78
2023-03-14T03:37:05.312Z,98666.25
2023-03-14T03:39:32.091Z,98663.09
2023-03-14T03:41:58.852Z,98648.13
2023-03-14T03:44:25.625Z,98655.94
2023-03-14T03:46:53.233Z,98658.66
2023-03-14T03:49:20.012Z,98656.22
2023-03-14T03:51:46.767Z,98664.00
2023-03-14T03:54:13.695Z,98647.22
2023-03-14T03:56:40.492Z,98646.47
2023-03-14T03:59:07.280Z,98632.97
2023-03-14T04:01:34.042Z,98659.38
2023-03-14T04:04:00.966Z,98643.34
2023-03-14T04:06:27.918Z,98640.84
2023-03-14T04:08:55.574Z,98649.44
2023-03-14T04:11:22.403Z,98647.06
2023-03-14T04:13:49.455Z,98631.94
2023-03-14T04:16:22.661Z,98649.84
2023-03-14T04:18:49.536Z,98631.34
2023-03-14T04:21:17.166Z,98632.34
2023-03-14T04:23:44.055Z,98635.81
2023-03-14T04:26:11.059Z,98623.25
2023-03-14T04:28:37.905Z,98637.06
2023-03-14T04:31:09.311Z,98622.81
2023-03-14T04:33:37.165Z,98606.00
2023-03-14T04:36:05.716Z,98618.88
2023-03-14T04:38:32.974Z,98614.81
2023-03-14T04:41:03.270Z,98611.56
2023-03-14T04:43:30.391Z,98600.69
2023-03-14T04:45:58.576Z,98592.38
2023-03-14T04:48:26.470Z,98579.78
2023-03-14T04:50:54.125Z,98593.44
2023-03-14T04:53:20.941Z,98589.31
2023-03-14T04:55:56.189Z,98583.41
2023-03-14T04:58:24.074Z,98594.41
2023-03-14T05:00:51.364Z,98585.88
2023-03-14T05:03:19.809Z,98569.84
2023-03-14T05:05:47.132Z,98570.03
2023-03-14T05:08:14.356Z,98548.91
2023-03-14T05:10:41.189Z,98552.34
2023-03-14T05:13:07.961Z,98545.63
2023-03-14T05:15:34.758Z,98540.63
2023-03-14T05:18:01.553Z,98533.09
2023-03-14T05:20:28.364Z,98543.28
2023-03-14T05:22:55.265Z,98527.28
2023-03-14T05:25:22.072Z,98529.84
2023-03-14T05:27:48.774Z,98547.84
2023-03-14T05:30:15.651Z,98520.81
2023-03-14T05:32:42.400Z,98533.59
2023-03-14T05:35:09.570Z,98537.16
2023-03-14T05:37:36.271Z,98526.28
2023-03-14T05:40:04.052Z,98530.56
2023-03-14T05:42:30.859Z,98526.44
2023-03-14T05:44:57.609Z,98531.59
2023-03-14T05:47:24.508Z,98552.09
2023-03-14T05:49:51.268Z,98537.75
2023-03-14T05:52:18.011Z,98559.13
2023-03-14T05:54:44.825Z,98540.63
2023-03-14T05:57:11.567Z,98550.88
2023-03-14T05:59:38.336Z,98550.09
2023-03-14T06:02:05.149Z,98569.78
2023-03-14T06:04:31.954Z,98569.84
2023-03-14T06:06:58.796Z,98563.13
2023-03-14T06:09:25.728Z,98547.88
2023-03-14T06:11:52.493Z,98548.78
2023-03-14T06:14:19.571Z,98559.09
2023-03-14T06:16:46.420Z,98545.50
2023-03-14T06:19:13.157Z,98542.22
2023-03-14T06:21:39.897Z,98556.69
2023-03-14T06:24:07.374Z,98523.56
2023-03-14T06:26:34.257Z,98536.41
2023-03-14T06:29:04.354Z,98533.13
2023-03-14T06:31:32.399Z,98534.06
2023-03-14T06:33:59.874Z,98533.19
2023-03-14T06:36:26.779Z,98558.72
2023-03-14T06:38:53.678Z,98546.84
2023-03-14T06:41:20.636Z,98540.00
2023-03-14T06:43:47.428Z,98531.50
2023-03-14T06:46:14.263Z,98511.13
2023-03-14T06:48:41.119Z,98525.63
2023-03-14T06:51:08.093Z,98517.16
2023-03-14T06:53:35.024Z,98512.94
2023-03-14T06:56:01.835Z,98508.69
2023-03-14T06:58:28.707Z,98532.53
2023-03-14T07:00:55.767Z,98517.28
2023-03-14T07:03:23.311Z,98535.28
2023-03-14T07:05:50.095Z,98531.88
2023-03-14T07:08:16.899Z,98520.03
2023-03-14T07:10:43.725Z,98520.13
2023-03-14T07:13:10.524Z,98518.47
2023-03-14T07:15:37.352Z,98533.88
2023-03-14T07:18:04.284Z,98526.28
2023-03-14T07:20:33.327Z,98527.19
2023-03-14T07:23:04.237Z,98561.34
2023-03-14T07:25:31.122Z,98530.69
2023-03-14T07:27:57.987Z,98552.06
2023-03-14T07:30:24.863Z,98540.19
2023-03-14T07:32:52.796Z,98543.66
2023-03-14T07:35:19.982Z,98541.22
2023-03-14T07:37:46.898Z,98545.53
2023-03-14T07:40:16.229Z,98547.34
2023-03-14T07:42:44.175Z,98552.47
2023-03-14T07:45:12.485Z,98539.75
2023-03-14T07:47:39.375Z,98532.06
2023-03-14T07:50:06.924Z,98555.09
2023-03-14T07:52:33.908Z,98553.41
2023-03-14T07:55:01.247Z,98526.97
2023-03-14T07:57:29.675Z,98538.09
2023-03-14T07:59:56.402Z,98527.91
2023-03-14T08:02:25.026Z,98533.09
2023-03-14T08:04:51.828Z,98532.25
2023-03-14T08:07:18.638Z,98536.53
2023-03-14T08:09:45.591Z,98549.31
2023-03-14T08:12:12.337Z,98577.47
2023-03-14T08:14:39.129Z,98563.81
2023-03-14T08:17:07.423Z,98567.19
2023-03-14T08:19:34.255Z,98556.06
2023-03-14T08:22:01.054Z,98554.38
2023-03-14T08:24:27.941Z,98555.25
2023-03-14T08:26:54.762Z,98555.22
2023-03-14T08:29:21.690Z,98570.56
2023-03-14T08:31:50.009Z,98579.09
2023-03-14T08:34:17.484Z,98562.97
2023-03-14T08:36:44.776Z,98558.81
2023-03-14T08:39:11.992Z,98548.66
2023-03-14T08:41:41.452Z,98557.22
2023-03-14T08:44:09.483Z,98550.44
2023-03-14T08:46:36.425Z,98553.06
2023-03-14T08:49:03.280Z,98550.53
2023-03-14T08:51:30.504Z,98545.47
2023-03-14T08:53:57.280Z,98560.00
2023-03-14T08:56:26.015Z,98545.56
2023-03-14T08:58:53.160Z,98562.69
2023-03-14T09:01:20.511Z,98553.38
2023-03-14T09:03:49.248Z,98566.19
2023-03-14T09:06:18.956Z,98538.94
2023-03-14T09:08:46.571Z,98546.63
2023-03-14T09:11:13.631Z,98539.84
2023-03-14T09:13:41.184Z,98539.03
2023-03-14T09:16:08.838Z,98542.47
2023-03-14T09:18:35.700Z,98522.84
2023-03-14T09:21:03.163Z,98545.06
2023-03-14T09:23:29.920Z,98547.66
2023-03-14T09:25:58.136Z,98556.22
2023-03-14T09:28:25.270Z,98563.06
2023-03-14T09:30:52.414Z,98548.56
2023-03-14T09:33:19.772Z,98553.69
2023-03-14T09:35:46.569Z,98551.13
2023-03-14T09:38:13.372Z,98548.56
2023-03-14T09:40:41.823Z,98546.84
2023-03-14T09:43:15.172Z,98565.66
2023-03-14T09:45:46.621Z,98547.69
2023-03-14T09:48:20.349Z,98546.00
2023-03-14T09:50:51.092Z,98534.91
2023-03-14T09:53:20.477Z,98564.88
2023-03-14T09:55:50.670Z,98540.09
2023-03-14T09:58:21.030Z,98541.78
2023-03-14T10:00:50.345Z,98549.50
2023-03-14T10:03:26.048Z,98542.69
2023-03-14T10:05:53.188Z,98558.06
2023-03-14T10:08:20.314Z,98554.69
2023-03-14T10:10:47.159Z,98561.53
2023-03-14T10:13:29.618Z,98544.44
2023-03-14T10:16:04.225Z,98532.47
2023-03-14T10:18:35.259Z,98521.34
2023-03-14T10:21:25.322Z,98519.63
2023-03-14T10:23:52.074Z,98517.94
2023-03-14T10:26:26.379Z,98517.09
2023-03-14T10:28:56.233Z,98499.13
2023-03-14T10:31:27.118Z,98493.13
2023-03-14T10:34:06.105Z,98493.16
2023-03-14T10:36:36.002Z,98513.66
2023-03-14T10:39:25.824Z,98539.34
2023-03-14T10:42:23.123Z,98515.38
2023-03-14T10:44:55.914Z,98508.53
2023-03-14T10:47:25.573Z,98519.66
2023-03-14T10:49:52.548Z,98519.66
2023-03-14T10:52:30.883Z,98496.56
2023-03-14T10:55:10.107Z,98493.97
2023-03-14T10:57:41.629Z,98490.56
2023-03-14T11:00:23.200Z,98493.13
2023-03-14T11:03:21.600Z,98493.09
2023-03-14T11:05:59.179Z,98487.97
2023-03-14T11:08:54.361Z,98482.75
2023-03-14T11:11:26.268Z,98523.81
2023-03-14T11:13:58.799Z,98468.94
2023-03-14T11:17:19.415Z,98495.47
2023-03-14T11:20:31.031Z,98443.97
2023-03-14T11:23:15.473Z,98468.84
2023-03-14T11:25:58.199Z,98459.44
2023-03-14T11:28:48.750Z,98485.13
2023-03-14T11:31:34.978Z,98473.16
2023-03-14T11:34:54.485Z,98472.31
2023-03-14T11:37:34.728Z,98482.59
2023-03-14T11:40:12.385Z,98494.63
2023-03-14T11:42:42.608Z,98492.03
2023-03-14T11:45:20.024Z,98500.59
2023-03-14T11:47:54.539Z,98478.31
2023-03-14T11:50:29.592Z,98467.16
2023-03-14T11:53:04.915Z,98479.19
2023-03-14T11:55:37.029Z,98463.75
2023-03-14T11:58:19.095Z,98483.44
2023-03-14T12:00:46.977Z,98498.81
2023-03-14T12:03:23.008Z,98510.84
2023-03-14T12:06:15.394Z,98523.66
2023-03-14T12:08:48.955Z,98497.09
2023-03-14T12:11:25.267Z,98479.09
2023-03-14T12:13:54.180Z,98509.13
2023-03-14T12:16:21.613Z,98485.13
2023-03-14T12:18:49.089Z,98494.56
2023-03-14T12:21:16.079Z,98504.84
2023-03-14T12:24:00.705Z,98479.97
2023-03-14T12:26:44.421Z,98496.28
2023-03-14T12:29:18.028Z,98501.41
2023-03-14T12:32:08.365Z,98540.84
2023-03-14T12:34:44.140Z,98493.69
2023-03-14T12:37:29.409Z,98507.44
2023-03-14T12:40:27.399Z,98529.69
2023-03-14T12:43:02.826Z,98526.31
2023-03-14T12:45:37.154Z,98532.31
2023-03-14T12:48:23.364Z,98520.28
2023-03-14T12:51:13.888Z,98530.59
2023-03-14T12:53:59.379Z,98576.91
2023-03-14T12:56:48.727Z,98587.28
2023-03-14T12:59:34.701Z,98588.16
2023-03-14T13:02:07.446Z,98558.19
2023-03-14T13:04:40.016Z,98571.88
2023-03-14T13:07:30.339Z,98566.72
2023-03-14T13:10:20.229Z,98544.44
2023-03-14T13:12:56.420Z,98547.91
2023-03-14T13:15:44.706Z,98505.91
2023-03-14T13:18:18.580Z,98511.03
2023-03-14T13:20:55.502Z,98527.31
2023-03-14T13:23:29.013Z,98516.16
2023-03-14T13:25:56.255Z,98499.91
2023-03-14T13:28:23.946Z,98494.72
2023-03-14T13:30:56.046Z,98497.34
2023-03-14T13:33:24.616Z,98507.63
2023-03-14T13:36:03.633Z,98512.75
2023-03-14T13:38:34.064Z,98505.03
2023-03-14T13:41:04.995Z,98517.03
2023-03-14T13:43:35.227Z,98499.94
2023-03-14T13:46:15.388Z,98508.47
2023-03-14T13:48:51.130Z,98497.34
2023-03-14T13:51:19.677Z,98504.22
2023-03-14T13:53:55.373Z,98520.47
2023-03-14T13:56:24.513Z,98509.38
2023-03-14T13:58:51.923Z,98515.38
2023-03-14T14:01:20.304Z,98508.53
2023-03-14T14:03:52.303Z,98539.34
2023-03-14T14:06:31.569Z,98518.81
2023-03-14T14:09:01.962Z,98510.25
2023-03-14T14:11:59.887Z,98518.81
2023-03-14T14:14:41.719Z,98511.94
2023-03-14T14:17:14.035Z,98505.09
2023-03-14T14:19:42.302Z,98532.50
2023-03-14T14:22:12.953Z,98510.25
2023-03-14T14:24:40.960Z,98524.78
2023-03-14T14:27:28.090Z,98536.78
2023-03-14T14:30:06.129Z,98539.38
2023-03-14T14:32:39.129Z,98544.50
2023-03-14T14:35:07.342Z,98551.34
2023-03-14T14:37:43.519Z,98534.22
2023-03-14T14:40:31.680Z,98550.50
2023-03-14T14:43:06.114Z,98565.88
2023-03-14T14:45:35.735Z,98550.50
2023-03-14T14:48:02.462Z,98553.06
2023-03-14T14:50:52.679Z,98575.31
2023-03-14T14:53:45.491Z,98558.19
2023-03-14T14:56:27.634Z,98563.31
2023-03-14T14:59:00.694Z,98569.31
2023-03-14T15:01:33.995Z,98567.63
2023-03-14T15:04:01.505Z,98570.16
2023-03-14T15:06:32.027Z,98577.84
2023-03-14T15:08:59.600Z,98568.47
2023-03-14T15:11:27.464Z,98553.88
2023-03-14T15:13:54.673Z,98566.72
2023-03-14T15:16:24.593Z,98565.03
2023-03-14T15:18:58.473Z,98560.75
2023-03-14T15:21:26.554Z,98577.00
2023-03-14T15:23:53.930Z,98577.84
2023-03-14T15:26:23.339Z,98582.13
2023-03-14T15:28:50.808Z,98566.72
2023-03-14T15:31:19.369Z,98568.44
2023-03-14T15:33:47.054Z,98565.88
2023-03-14T15:36:22.737Z,98575.28
2023-03-14T15:38:50.844Z,98573.56
2023-03-14T15:41:21.585Z,98561.56
2023-03-14T15:43:48.847Z,98564.16
2023-03-14T15:46:18.380Z,98559.03
2023-03-14T15:48:46.132Z,98582.97
2023-03-14T15:51:13.056Z,98585.53
2023-03-14T15:53:40.036Z,98594.97
2023-03-14T15:56:09.065Z,98584.69
2023-03-14T15:58:35.925Z,98607.78
2023-03-14T16:01:03.557Z,98583.84
2023-03-14T16:03:30.641Z,98592.34
2023-03-14T16:05:57.823Z,98588.09
2023-03-14T16:08:26.777Z,98596.63
2023-03-14T16:10:54.428Z,98583.81
2023-03-14T16:13:22.080Z,98577.78
2023-03-14T16:15:57.563Z,98593.19
2023-03-14T16:18:24.771Z,98604.28
2023-03-14T16:20:56.966Z,98596.59
2023-03-14T16:23:24.195Z,98585.44
2023-03-14T16:25:51.494Z,98626.53
2023-03-14T16:28:18.581Z,98597.44
2023-03-14T16:30:45.759Z,98628.19
2023-03-14T16:33:13.118Z,98617.94
2023-03-14T16:35:41.324Z,98629.03
2023-03-14T16:38:08.865Z,98634.16
2023-03-14T16:40:35.627Z,98630.72
2023-03-14T16:43:15.587Z,98643.53
2023-03-14T16:45:43.357Z,98622.13
2023-03-14T16:48:10.176Z,98618.72
2023-03-14T16:50:36.988Z,98642.66
2023-03-14T16:53:03.744Z,98622.09
2023-03-14T16:55:30.545Z,98639.22
2023-03-14T16:57:57.255Z,98627.22
2023-03-14T17:00:24.254Z,98653.75
2023-03-14T17:02:50.956Z,98631.50
2023-03-14T17:05:17.773Z,98623.78
2023-03-14T17:07:44.565Z,98629.81
2023-03-14T17:10:11.512Z,98624.69
2023-03-14T17:12:38.348Z,98634.91
2023-03-14T17:15:05.626Z,98645.16
2023-03-14T17:17:32.495Z,98636.63
2023-03-14T17:19:59.263Z,98638.31
2023-03-14T17:22:30.496Z,98648.56
2023-03-14T17:24:58.690Z,98640.00
2023-03-14T17:27:25.444Z,98611.81
2023-03-14T17:29:52.280Z,98615.25
2023-03-14T17:32:19.148Z,98618.66
2023-03-14T17:34:46.456Z,98611.00
2023-03-14T17:37:17.085Z,98639.19
2023-03-14T17:39:43.874Z,98620.38
2023-03-14T17:42:10.729Z,98618.69
2023-03-14T17:44:37.535Z,98621.22
2023-03-14T17:47:04.402Z,98634.91
2023-03-14T17:49:31.262Z,98614.41
2023-03-14T17:51:58.061Z,98633.22
2023-03-14T17:54:27.022Z,98619.53
2023-03-14T17:56:53.848Z,98626.38
2023-03-14T17:59:20.830Z,98623.81
2023-03-14T18:01:47.888Z,98642.63
2023-03-14T18:04:14.991Z,98627.22
2023-03-14T18:06:44.871Z,98619.53
2023-03-14T18:09:11.764Z,98625.53
2023-03-14T18:11:38.681Z,98634.91
2023-03-14T18:14:07.853Z,98634.94
2023-03-14T18:16:36.078Z,98633.22
2023-03-14T18:19:03.325Z,98620.41
2023-03-14T18:21:31.062Z,98622.94
2023-03-14T18:23:58.020Z,98612.69
2023-03-14T18:26:25.593Z,98623.78
2023-03-14T18:28:52.378Z,98633.22
2023-03-14T18:31:22.524Z,98627.22
2023-03-14T18:33:49.763Z,98642.63
2023-03-14T18:36:16.793Z,98627.22
2023-03-14T18:38:46.564Z,98621.28
2023-03-14T18:41:15.904Z,98641.81
2023-03-14T18:43:43.739Z,98639.22
2023-03-14T18:46:11.485Z,98630.66
2023-03-14T18:48:44.257Z,98635.81
2023-03-14T18:51:15.397Z,98640.06
2023-03-14T18:53:43.685Z,98648.63
2023-03-14T18:56:13.938Z,98640.88
2023-03-14T18:58:41.510Z,98640.06
2023-03-14T19:01:08.397Z,98623.78
2023-03-14T19:03:38.070Z,98636.63
2023-03-14T19:06:06.777Z,98658.81
2023-03-14T19:08:36.516Z,98641.75
2023-03-14T19:11:05.696Z,98633.16
2023-03-14T19:13:33.734Z,98632.31
2023-03-14T19:16:01.610Z,98645.13
2023-03-14T19:18:30.237Z,98653.66
2023-03-14T19:21:03.420Z,98632.31
2023-03-14T19:23:31.862Z,98649.38
2023-03-14T19:25:59.238Z,98645.97
2023-03-14T19:28:26.455Z,98654.50
2023-03-14T19:30:53.249Z,98663.94
2023-03-14T19:33:20.890Z,98638.31
2023-03-14T19:35:48.184Z,98629.72
2023-03-14T19:38:15.421Z,98651.13
2023-03-14T19:40:44.951Z,98650.25
2023-03-14T19:43:13.038Z,98636.59
2023-03-14T19:45:42.713Z,98635.75
2023-03-14T19:48:12.758Z,98641.75
2023-03-14T19:50:39.548Z,98655.38
2023-03-14T19:53:09.760Z,98658.81
2023-03-14T19:55:37.686Z,98648.53
2023-03-14T19:58:05.404Z,98646.81
2023-03-14T20:00:32.336Z,98659.66
2023-03-14T20:02:59.277Z,98638.28
2023-03-14T20:05:26.140Z,98661.38
2023-03-14T20:07:53.002Z,98663.09
2023-03-14T20:10:24.922Z,98655.34
2023-03-14T20:12:51.734Z,98675.94
2023-03-14T20:15:20.284Z,98657.88
2023-03-14T20:17:51.239Z,98657.06
2023-03-14T20:20:19.613Z,98657.94
2023-03-14T20:22:47.646Z,98669.00
2023-03-14T20:25:20.256Z,98655.34
2023-03-14T20:27:47.485Z,98670.69
2023-03-14T20:30:18.587Z,98673.28
2023-03-14T20:32:45.694Z,98669.84
2023-03-14T20:35:14.051Z,98674.13
2023-03-14T20:37:41.613Z,98650.19
2023-03-14T20:40:11.372Z,98651.91
2023-03-14T20:42:39.513Z,98679.25
2023-03-14T20:45:07.252Z,98660.44
2023-03-14T20:47:35.476Z,98674.97
2023-03-14T20:50:03.677Z,98657.03
2023-03-14T20:52:30.666Z,98664.69
2023-03-14T20:54:59.542Z,98662.16
2023-03-14T20:57:26.983Z,98660.44
2023-03-14T20:59:54.002Z,98648.47
2023-03-14T21:02:20.843Z,98665.59
2023-03-14T21:04:47.754Z,98636.50
2023-03-14T21:07:14.797Z,98673.25
2023-03-14T21:09:41.616Z,98677.53
2023-03-14T21:12:08.423Z,98679.25
2023-03-14T21:14:35.192Z,98674.97
2023-03-14T21:17:02.055Z,98658.72
2023-03-14T21:19:34.141Z,98675.81
2023-03-14T21:22:02.279Z,98686.09
2023-03-14T21:24:29.363Z,98679.25
2023-03-14T21:26:56.639Z,98677.50
2023-03-14T21:29:24.349Z,98700.63
2023-03-14T21:31:51.651Z,98677.56
2023-03-14T21:34:21.062Z,98680.09
2023-03-14T21:36:49.027Z,98679.25
2023-03-14T21:39:16.387Z,98667.28
2023-03-14T21:41:43.146Z,98688.66
2023-03-14T21:44:10.086Z,98687.75
2023-03-14T21:46:37.234Z,98684.34
2023-03-14T21:49:04.259Z,98688.63
2023-03-14T21:51:35.721Z,98685.22
2023-03-14T21:54:10.010Z,98662.13
2023-03-14T21:56:37.902Z,98686.94
2023-03-14T21:59:05.298Z,98652.75
2023-03-14T22:01:35.121Z,98674.09
2023-03-14T22:04:01.917Z,98667.25
2023-03-14T22:06:29.284Z,98674.09
2023-03-14T22:08:56.206Z,98663.00
2023-03-14T22:11:24.122Z,98684.38
2023-03-14T22:13:50.905Z,98676.66
2023-03-14T22:16:17.956Z,98686.09
2023-03-14T22:18:45.540Z,98675.03
2023-03-14T22:21:12.585Z,98681.03
2023-03-14T22:23:39.383Z,98667.34
2023-03-14T22:26:06.369Z,98674.16
2023-03-14T22:28:33.254Z,98677.59
2023-03-14T22:31:03.193Z,98666.47
2023-03-14T22:33:31.455Z,98670.75
2023-03-14T22:35:58.467Z,98675.88
2023-03-14T22:38:25.656Z,98694.66
2023-03-14T22:40:53.086Z,98701.53
2023-03-14T22:43:19.955Z,98708.31
2023-03-14T22:45:47.300Z,98703.19
2023-03-14T22:48:15.294Z,98692.09
2023-03-14T22:50:42.297Z,98688.69
2023-03-14T22:53:09.322Z,98696.41
2023-03-14T22:55:36.153Z,98682.72
2023-03-14T22:58:03.371Z,98677.63
2023-03-14T23:00:31.668Z,98685.28
2023-03-14T23:02:58.510Z,98675.88
2023-03-14T23:05:25.792Z,98677.59
2023-03-14T23:07:53.324Z,98681.00
2023-03-14T23:10:20.228Z,98699.78
2023-03-14T23:12:47.119Z,98697.22
2023-03-14T23:15:17.295Z,98704.94
2023-03-14T23:17:45.061Z,98679.28
2023-03-14T23:20:13.173Z,98692.13
2023-03-14T23:22:40.254Z,98699.84
2023-03-14T23:25:07.839Z,98697.25
2023-03-14T23:27:34.997Z,98704.94
2023-03-14T23:30:02.299Z,98702.38
2023-03-14T23:32:31.628Z,98720.34
2023-03-14T23:34:58.477Z,98691.31
2023-03-14T23:37:25.930Z,98687.03
2023-03-14T23:39:53.079Z,98691.34
2023-03-14T23:42:19.860Z,98705.03
2023-03-14T23:44:46.607Z,98714.44
2023-03-14T23:47:13.529Z,98699.91
2023-03-14T23:49:41.666Z,98712.72
2023-03-14T23:52:08.964Z,98706.78
2023-03-14T23:54:35.965Z,98701.66
2023-03-14T23:57:05.376Z,98698.25
2023-03-14T23:59:33.220Z,98705.94
